createdAt,value
2019-03-16T00:02:03.725Z,7.90
2019-03-16T00:04:32.497Z,7.90
2019-03-16T00:07:00.972Z,8.00
2019-03-16T00:09:29.412Z,7.90
2019-03-16T00:11:57.991Z,8.00
2019-03-16T00:14:26.655Z,8.00
2019-03-16T00:16:55.108Z,8.00
2019-03-16T00:19:23.567Z,8.00
2019-03-16T00:21:52.053Z,7.90
2019-03-16T00:24:20.509Z,8.00
2019-03-16T00:26:48.981Z,7.90
2019-03-16T00:29:17.519Z,7.90
2019-03-16T00:31:46.300Z,8.00
2019-03-16T00:34:15.089Z,8.00
2019-03-16T00:36:43.556Z,8.00
2019-03-16T00:39:12.044Z,7.90
2019-03-16T00:41:40.561Z,8.00
2019-03-16T00:44:09.043Z,8.00
2019-03-16T00:46:37.504Z,8.00
2019-03-16T00:49:06.291Z,8.00
2019-03-16T00:51:34.766Z,7.90
2019-03-16T00:54:03.223Z,8.00
2019-03-16T00:56:32.049Z,7.90
2019-03-16T00:59:00.513Z,8.00
2019-03-16T01:01:28.959Z,7.90
2019-03-16T01:03:57.435Z,7.90
2019-03-16T01:06:26.185Z,7.90
2019-03-16T01:08:54.728Z,7.90
2019-03-16T01:11:23.178Z,8.00
2019-03-16T01:13:51.637Z,7.90
2019-03-16T01:16:20.398Z,7.90
2019-03-16T01:18:48.865Z,7.90
2019-03-16T01:21:17.336Z,7.90
2019-03-16T01:23:46.059Z,8.00
2019-03-16T01:26:14.546Z,7.90
2019-03-16T01:28:43.052Z,7.90
2019-03-16T01:31:11.518Z,7.90
2019-03-16T01:33:40.285Z,7.90
2019-03-16T01:36:08.811Z,7.90
2019-03-16T01:38:37.273Z,7.90
2019-03-16T01:41:05.871Z,7.90
2019-03-16T01:43:34.693Z,8.00
2019-03-16T01:46:03.422Z,7.90
2019-03-16T01:48:31.891Z,7.90
2019-03-16T01:51:00.691Z,7.90
2019-03-16T01:53:29.163Z,7.90
2019-03-16T01:55:57.621Z,7.90
2019-03-16T01:58:26.081Z,7.90
2019-03-16T02:00:54.601Z,7.90
2019-03-16T02:03:23.096Z,7.90
2019-03-16T02:05:51.881Z,7.90
2019-03-16T02:08:20.369Z,7.90
2019-03-16T02:10:48.813Z,7.90
2019-03-16T02:13:17.267Z,7.90
2019-03-16T02:15:46.129Z,7.90
2019-03-16T02:18:14.621Z,7.90
2019-03-16T02:20:43.140Z,7.90
2019-03-16T02:23:11.585Z,7.90
2019-03-16T02:25:40.360Z,7.90
2019-03-16T02:28:08.828Z,7.90
2019-03-16T02:30:37.294Z,7.90
2019-03-16T02:33:12.962Z,7.90
2019-03-16T02:35:35.951Z,7.90
2019-03-16T02:38:04.475Z,7.90
2019-03-16T02:40:32.928Z,7.90
2019-03-16T02:43:01.415Z,7.90
2019-03-16T02:45:29.887Z,7.90
2019-03-16T02:47:58.656Z,7.90
2019-03-16T02:50:27.127Z,7.90
2019-03-16T02:52:55.574Z,7.90
2019-03-16T02:55:24.027Z,7.90
2019-03-16T02:57:52.581Z,7.90
2019-03-16T03:00:21.034Z,7.80
2019-03-16T03:02:49.491Z,7.90
2019-03-16T03:05:17.960Z,7.90
2019-03-16T03:07:46.416Z,7.80
2019-03-16T03:10:15.708Z,7.90
2019-03-16T03:12:44.265Z,7.80
2019-03-16T03:15:13.205Z,7.80
2019-03-16T03:17:41.659Z,7.90
2019-03-16T03:20:12.033Z,7.80
2019-03-16T03:22:40.509Z,7.90
2019-03-16T03:25:09.034Z,7.80
2019-03-16T03:27:37.836Z,7.80
2019-03-16T03:30:09.751Z,7.80
2019-03-16T03:32:38.270Z,7.80
2019-03-16T03:35:08.842Z,7.80
2019-03-16T03:37:37.461Z,7.90
2019-03-16T03:40:10.907Z,7.90
2019-03-16T03:42:39.646Z,7.80
2019-03-16T03:45:12.478Z,7.90
2019-03-16T03:47:41.102Z,7.90
2019-03-16T03:50:12.473Z,7.80
2019-03-16T03:52:40.925Z,7.90
2019-03-16T03:55:13.406Z,7.80
2019-03-16T03:57:42.394Z,7.80
2019-03-16T04:00:15.742Z,7.80
2019-03-16T04:02:44.299Z,7.80
2019-03-16T04:05:12.895Z,7.80
2019-03-16T04:07:41.733Z,7.80
2019-03-16T04:10:11.398Z,7.80
2019-03-16T04:12:40.000Z,7.80
2019-03-16T04:15:10.753Z,7.80
2019-03-16T04:17:39.624Z,7.80
2019-03-16T04:20:11.323Z,7.80
2019-03-16T04:22:39.781Z,7.80
2019-03-16T04:25:08.484Z,7.80
2019-03-16T04:27:36.983Z,7.80
2019-03-16T04:30:10.091Z,7.80
2019-03-16T04:32:38.551Z,7.80
2019-03-16T04:35:07.180Z,7.80
2019-03-16T04:37:35.638Z,7.80
2019-03-16T04:40:06.127Z,7.80
2019-03-16T04:42:34.604Z,7.80
2019-03-16T04:45:03.343Z,7.80
2019-03-16T04:47:31.801Z,7.80
2019-03-16T04:50:00.404Z,7.80
2019-03-16T04:52:28.893Z,7.70
2019-03-16T04:54:57.358Z,7.70
2019-03-16T04:57:25.835Z,7.70
2019-03-16T04:59:54.316Z,7.80
2019-03-16T05:02:22.779Z,7.80
2019-03-16T05:04:51.217Z,7.80
2019-03-16T05:07:19.719Z,7.80
2019-03-16T05:09:48.165Z,7.80
2019-03-16T05:12:16.611Z,7.80
2019-03-16T05:14:45.092Z,7.70
2019-03-16T05:17:13.549Z,7.70
2019-03-16T05:19:42.016Z,7.70
2019-03-16T05:22:10.491Z,7.70
2019-03-16T05:24:39.026Z,7.70
2019-03-16T05:27:07.756Z,7.60
2019-03-16T05:29:36.240Z,7.70
2019-03-16T05:32:04.695Z,7.70
2019-03-16T05:34:33.172Z,7.80
2019-03-16T05:37:01.636Z,7.80
2019-03-16T05:39:30.179Z,7.70
2019-03-16T05:41:58.657Z,7.80
2019-03-16T05:44:27.169Z,7.80
2019-03-16T05:46:55.925Z,7.70
2019-03-16T05:49:24.716Z,7.80
2019-03-16T05:51:53.512Z,7.80
2019-03-16T05:54:22.040Z,7.80
2019-03-16T05:56:50.508Z,7.70
2019-03-16T05:59:19.242Z,7.70
2019-03-16T06:01:47.723Z,7.70
2019-03-16T06:04:16.523Z,7.70
2019-03-16T06:06:45.005Z,7.70
2019-03-16T06:09:13.455Z,7.70
2019-03-16T06:11:41.944Z,7.70
2019-03-16T06:14:10.409Z,7.70
2019-03-16T06:16:38.900Z,7.80
2019-03-16T06:19:07.343Z,7.70
2019-03-16T06:21:35.785Z,7.70
2019-03-16T06:24:04.263Z,7.70
2019-03-16T06:26:33.073Z,7.70
2019-03-16T06:29:01.596Z,7.70
2019-03-16T06:31:30.047Z,7.70
2019-03-16T06:33:58.493Z,7.80
2019-03-16T06:36:26.961Z,7.70
2019-03-16T06:38:55.450Z,7.80
2019-03-16T06:41:23.903Z,7.80
2019-03-16T06:43:52.379Z,7.80
2019-03-16T06:46:20.831Z,7.70
2019-03-16T06:48:49.613Z,7.80
2019-03-16T06:51:18.066Z,7.70
2019-03-16T06:53:46.527Z,7.70
2019-03-16T06:56:15.007Z,7.80
2019-03-16T06:58:43.459Z,7.80
2019-03-16T07:01:11.923Z,7.70
2019-03-16T07:03:40.644Z,7.80
2019-03-16T07:06:09.178Z,7.80
2019-03-16T07:08:37.630Z,7.80
2019-03-16T07:11:06.158Z,7.80
2019-03-16T07:13:34.631Z,7.70
2019-03-16T07:16:03.107Z,7.70
2019-03-16T07:18:31.579Z,7.80
2019-03-16T07:21:00.379Z,7.70
2019-03-16T07:23:28.973Z,7.70
2019-03-16T07:25:57.851Z,7.80
2019-03-16T07:28:26.393Z,7.70
2019-03-16T07:30:54.842Z,7.70
2019-03-16T07:33:23.568Z,7.70
2019-03-16T07:35:52.040Z,7.70
2019-03-16T07:38:20.785Z,6.90
2019-03-16T07:40:49.251Z,7.80
2019-03-16T07:43:17.733Z,7.80
2019-03-16T07:45:46.204Z,7.80
2019-03-16T07:48:14.675Z,7.80
2019-03-16T07:50:43.127Z,7.80
2019-03-16T07:53:11.863Z,7.80
2019-03-16T07:55:42.289Z,7.80
2019-03-16T07:58:10.543Z,7.80
2019-03-16T08:00:39.017Z,7.80
2019-03-16T08:03:07.551Z,7.80
2019-03-16T08:05:35.999Z,7.80
2019-03-16T08:08:04.458Z,7.80
2019-03-16T08:10:33.181Z,7.70
2019-03-16T08:13:01.979Z,7.80
2019-03-16T08:15:30.441Z,7.80
2019-03-16T08:17:58.889Z,7.70
2019-03-16T08:20:27.356Z,7.80
2019-03-16T08:22:55.854Z,7.80
2019-03-16T08:25:24.309Z,7.80
2019-03-16T08:27:54.515Z,7.80
2019-03-16T08:30:23.850Z,7.80
2019-03-16T08:32:52.472Z,7.80
2019-03-16T08:35:20.991Z,7.80
2019-03-16T08:37:49.474Z,7.80
2019-03-16T08:40:17.926Z,7.80
2019-03-16T08:42:46.412Z,7.80
2019-03-16T08:45:15.221Z,7.80
2019-03-16T08:47:44.030Z,7.80
2019-03-16T08:50:13.021Z,7.80
2019-03-16T08:52:41.482Z,7.80
2019-03-16T08:55:10.531Z,7.80
2019-03-16T08:57:39.080Z,7.80
2019-03-16T09:00:10.346Z,7.80
2019-03-16T09:02:38.803Z,7.80
2019-03-16T09:05:08.209Z,7.80
2019-03-16T09:07:36.676Z,7.80
2019-03-16T09:10:09.591Z,7.90
2019-03-16T09:12:38.064Z,7.80
2019-03-16T09:15:09.923Z,7.80
2019-03-16T09:17:38.409Z,7.80
2019-03-16T09:20:08.867Z,7.80
2019-03-16T09:22:37.413Z,7.80
2019-03-16T09:25:08.515Z,7.70
2019-03-16T09:27:36.998Z,7.80
2019-03-16T09:30:11.367Z,7.80
2019-03-16T09:32:39.834Z,7.80
2019-03-16T09:35:08.352Z,7.80
2019-03-16T09:37:36.823Z,7.80
2019-03-16T09:40:08.192Z,7.80
2019-03-16T09:42:36.915Z,7.80
2019-03-16T09:45:08.341Z,7.80
2019-03-16T09:47:36.785Z,7.80
2019-03-16T09:50:09.321Z,7.90
2019-03-16T09:52:37.811Z,7.80
2019-03-16T09:55:09.155Z,7.90
2019-03-16T09:57:37.720Z,7.90
2019-03-16T10:00:17.225Z,7.80
2019-03-16T10:02:45.706Z,7.90
2019-03-16T10:05:14.159Z,7.90
2019-03-16T10:07:42.652Z,7.90
2019-03-16T10:10:14.833Z,7.90
2019-03-16T10:12:43.282Z,7.90
2019-03-16T10:15:12.996Z,7.90
2019-03-16T10:17:41.766Z,7.90
2019-03-16T10:20:12.479Z,7.80
2019-03-16T10:22:41.025Z,7.80
2019-03-16T10:25:09.646Z,7.80
2019-03-16T10:27:38.474Z,7.90
2019-03-16T10:30:12.185Z,7.90
2019-03-16T10:32:40.767Z,7.90
2019-03-16T10:35:09.635Z,7.90
2019-03-16T10:37:38.096Z,7.90
2019-03-16T10:40:09.392Z,7.90
2019-03-16T10:42:37.893Z,7.90
2019-03-16T10:45:08.187Z,7.90
2019-03-16T10:47:36.967Z,7.90
2019-03-16T10:50:09.101Z,7.90
2019-03-16T10:52:37.826Z,7.90
2019-03-16T10:55:07.349Z,7.90
2019-03-16T10:57:35.886Z,7.90
2019-03-16T11:00:07.583Z,7.90
2019-03-16T11:02:36.063Z,7.90
2019-03-16T11:05:05.946Z,7.90
2019-03-16T11:07:34.509Z,7.90
2019-03-16T11:10:03.989Z,7.90
2019-03-16T11:12:32.457Z,7.90
2019-03-16T11:15:00.941Z,7.90
2019-03-16T11:17:29.424Z,8.00
2019-03-16T11:19:57.890Z,8.00
2019-03-16T11:22:26.348Z,8.00
2019-03-16T11:24:54.833Z,8.00
2019-03-16T11:27:23.297Z,8.00
2019-03-16T11:29:51.784Z,8.00
2019-03-16T11:32:20.249Z,8.00
2019-03-16T11:34:48.686Z,8.00
2019-03-16T11:37:17.173Z,8.00
2019-03-16T11:39:45.609Z,8.00
2019-03-16T11:42:14.428Z,8.00
2019-03-16T11:44:42.893Z,8.00
2019-03-16T11:47:11.359Z,8.00
2019-03-16T11:49:39.829Z,8.10
2019-03-16T11:52:08.292Z,8.10
2019-03-16T11:54:36.859Z,8.20
2019-03-16T11:57:05.729Z,8.20
2019-03-16T11:59:34.181Z,8.20
2019-03-16T12:02:05.580Z,8.20
2019-03-16T12:04:32.961Z,8.20
2019-03-16T12:07:01.416Z,8.30
2019-03-16T12:09:29.903Z,8.30
2019-03-16T12:11:58.356Z,8.30
2019-03-16T12:14:26.847Z,8.30
2019-03-16T12:16:55.298Z,8.40
2019-03-16T12:19:23.761Z,8.50
2019-03-16T12:21:52.218Z,8.50
2019-03-16T12:24:20.682Z,8.50
2019-03-16T12:26:49.443Z,8.50
2019-03-16T12:29:17.924Z,8.50
2019-03-16T12:31:46.376Z,8.60
2019-03-16T12:34:15.093Z,8.60
2019-03-16T12:36:43.571Z,8.50
2019-03-16T12:39:12.013Z,8.50
2019-03-16T12:41:40.462Z,8.50
2019-03-16T12:44:08.948Z,8.50
2019-03-16T12:46:37.821Z,8.50
2019-03-16T12:49:06.261Z,8.60
2019-03-16T12:51:34.756Z,8.70
2019-03-16T12:54:03.338Z,8.70
2019-03-16T12:56:31.822Z,8.70
2019-03-16T12:59:09.779Z,8.70
2019-03-16T13:01:30.471Z,8.70
2019-03-16T13:03:58.955Z,8.70
2019-03-16T13:06:27.417Z,8.70
2019-03-16T13:08:55.874Z,8.70
2019-03-16T13:11:24.599Z,8.70
2019-03-16T13:13:53.085Z,8.70
2019-03-16T13:16:21.548Z,8.80
2019-03-16T13:18:50.015Z,8.80
2019-03-16T13:21:18.477Z,8.80
2019-03-16T13:23:47.038Z,8.80
2019-03-16T13:26:15.507Z,8.80
2019-03-16T13:28:44.265Z,8.80
2019-03-16T13:31:12.725Z,8.70
2019-03-16T13:33:41.263Z,8.70
2019-03-16T13:36:09.748Z,8.70
2019-03-16T13:38:38.209Z,8.70
2019-03-16T13:41:06.759Z,8.70
2019-03-16T13:43:35.225Z,8.70
2019-03-16T13:46:03.737Z,8.70
2019-03-16T13:48:32.520Z,8.80
2019-03-16T13:51:00.995Z,8.80
2019-03-16T13:53:29.447Z,8.80
2019-03-16T13:55:59.662Z,8.90
2019-03-16T13:58:28.508Z,8.90
2019-03-16T14:00:57.203Z,9.10
2019-03-16T14:03:25.696Z,9.10
2019-03-16T14:05:54.224Z,9.10
2019-03-16T14:08:40.907Z,9.20
2019-03-16T14:11:09.592Z,9.30
2019-03-16T14:13:38.213Z,9.40
2019-03-16T14:16:07.070Z,9.40
2019-03-16T14:18:35.647Z,9.50
2019-03-16T14:21:04.200Z,9.60
2019-03-16T14:23:32.854Z,9.60
2019-03-16T14:26:01.397Z,9.70
2019-03-16T14:28:30.258Z,9.70
2019-03-16T14:30:59.014Z,9.70
2019-03-16T14:33:28.136Z,9.70
2019-03-16T14:35:56.713Z,9.70
2019-03-16T14:38:25.215Z,9.70
2019-03-16T14:40:53.719Z,9.60
2019-03-16T14:43:22.293Z,9.60
2019-03-16T14:45:50.933Z,9.60
2019-03-16T14:48:19.925Z,9.60
2019-03-16T14:50:48.425Z,9.60
2019-03-16T14:53:16.949Z,9.60
2019-03-16T14:55:45.773Z,9.70
2019-03-16T14:58:14.309Z,9.60
2019-03-16T15:00:42.786Z,9.80
2019-03-16T15:03:11.636Z,9.80
2019-03-16T15:05:40.116Z,9.80
2019-03-16T15:08:08.608Z,9.70
2019-03-16T15:10:37.078Z,9.80
2019-03-16T15:13:05.593Z,9.90
2019-03-16T15:15:34.443Z,9.90
2019-03-16T15:18:03.220Z,10.00
2019-03-16T15:20:31.773Z,10.20
2019-03-16T15:23:00.591Z,10.10
2019-03-16T15:25:29.065Z,10.10
2019-03-16T15:27:57.599Z,10.30
2019-03-16T15:30:26.068Z,10.40
2019-03-16T15:32:54.561Z,10.40
2019-03-16T15:35:23.138Z,10.40
2019-03-16T15:37:51.698Z,10.30
2019-03-16T15:40:20.176Z,10.30
2019-03-16T15:42:48.734Z,10.30
2019-03-16T15:45:19.439Z,10.20
2019-03-16T15:47:47.986Z,10.30
2019-03-16T15:50:16.653Z,10.30
2019-03-16T15:52:45.156Z,10.20
2019-03-16T15:55:13.721Z,10.20
2019-03-16T15:57:42.964Z,10.10
2019-03-16T16:00:14.570Z,10.20
2019-03-16T16:02:43.277Z,10.10
2019-03-16T16:05:12.489Z,10.00
2019-03-16T16:07:41.044Z,10.00
2019-03-16T16:10:18.907Z,9.90
2019-03-16T16:12:47.474Z,9.90
2019-03-16T16:15:16.010Z,9.90
2019-03-16T16:17:44.646Z,9.90
2019-03-16T16:20:14.714Z,9.80
2019-03-16T16:22:43.400Z,9.80
2019-03-16T16:25:12.828Z,9.80
2019-03-16T16:27:41.657Z,9.80
2019-03-16T16:30:18.478Z,9.10
2019-03-16T16:32:47.012Z,9.80
2019-03-16T16:35:16.410Z,9.70
2019-03-16T16:37:44.970Z,9.60
2019-03-16T16:40:17.748Z,9.60
2019-03-16T16:42:46.331Z,9.60
2019-03-16T16:45:15.848Z,9.70
2019-03-16T16:47:44.639Z,9.60
2019-03-16T16:50:17.911Z,9.50
2019-03-16T16:52:46.462Z,9.60
2019-03-16T16:55:15.300Z,9.60
2019-03-16T16:57:44.099Z,9.50
2019-03-16T17:00:17.660Z,9.60
2019-03-16T17:02:46.233Z,9.50
2019-03-16T17:05:14.866Z,9.50
2019-03-16T17:07:43.398Z,9.40
2019-03-16T17:10:16.531Z,9.40
2019-03-16T17:12:45.534Z,9.40
2019-03-16T17:15:21.790Z,9.30
2019-03-16T17:17:50.265Z,9.30
2019-03-16T17:20:18.969Z,9.20
2019-03-16T17:22:47.580Z,9.20
2019-03-16T17:25:16.520Z,9.10
2019-03-16T17:27:45.228Z,9.20
2019-03-16T17:30:27.453Z,9.20
2019-03-16T17:32:55.954Z,9.20
2019-03-16T17:35:24.778Z,9.10
2019-03-16T17:37:53.334Z,9.00
2019-03-16T17:40:21.797Z,8.90
2019-03-16T17:42:50.351Z,9.00
2019-03-16T17:45:18.979Z,9.00
2019-03-16T17:47:47.596Z,8.90
2019-03-16T17:50:16.947Z,8.90
2019-03-16T17:52:45.787Z,8.90
2019-03-16T17:55:15.378Z,8.90
2019-03-16T17:57:45.404Z,8.80
2019-03-16T18:00:18.838Z,8.70
2019-03-16T18:02:51.874Z,8.60
2019-03-16T18:05:17.983Z,8.70
2019-03-16T18:07:46.565Z,8.70
2019-03-16T18:10:15.586Z,8.70
2019-03-16T18:12:44.159Z,8.60
2019-03-16T18:15:20.961Z,8.60
2019-03-16T18:17:49.531Z,8.50
2019-03-16T18:20:18.837Z,8.50
2019-03-16T18:22:48.033Z,8.40
2019-03-16T18:25:17.119Z,8.30
2019-03-16T18:27:45.658Z,8.30
2019-03-16T18:30:15.790Z,8.20
2019-03-16T18:32:44.688Z,8.20
2019-03-16T18:35:13.334Z,8.30
2019-03-16T18:37:41.984Z,8.20
2019-03-16T18:40:14.851Z,8.10
2019-03-16T18:42:43.390Z,8.00
2019-03-16T18:45:17.635Z,8.00
2019-03-16T18:47:46.122Z,8.00
2019-03-16T18:50:14.712Z,8.00
2019-03-16T18:52:43.204Z,7.90
2019-03-16T18:55:13.016Z,7.90
2019-03-16T18:57:41.560Z,7.80
2019-03-16T19:00:14.975Z,7.70
2019-03-16T19:02:43.478Z,7.80
2019-03-16T19:05:12.298Z,7.80
2019-03-16T19:07:40.950Z,7.80
2019-03-16T19:10:11.756Z,7.70
2019-03-16T19:12:40.474Z,7.70
2019-03-16T19:15:14.280Z,7.60
2019-03-16T19:17:42.829Z,7.70
2019-03-16T19:20:13.020Z,7.70
2019-03-16T19:22:41.513Z,7.70
2019-03-16T19:25:12.685Z,7.60
2019-03-16T19:27:41.342Z,7.50
2019-03-16T19:30:12.317Z,7.50
2019-03-16T19:32:40.765Z,7.40
2019-03-16T19:35:09.373Z,7.40
2019-03-16T19:37:37.845Z,7.30
2019-03-16T19:40:12.487Z,7.40
2019-03-16T19:42:41.283Z,7.30
2019-03-16T19:45:11.385Z,7.40
2019-03-16T19:47:40.195Z,7.30
2019-03-16T19:50:11.545Z,7.20
2019-03-16T19:52:39.994Z,7.30
2019-03-16T19:55:10.523Z,7.30
2019-03-16T19:57:39.120Z,7.40
2019-03-16T20:00:12.923Z,7.50
2019-03-16T20:02:49.853Z,7.40
2019-03-16T20:05:12.496Z,7.40
2019-03-16T20:07:41.369Z,7.70
2019-03-16T20:10:13.132Z,7.50
2019-03-16T20:12:42.049Z,7.50
2019-03-16T20:15:14.646Z,7.40
2019-03-16T20:17:43.310Z,7.40
2019-03-16T20:20:16.936Z,7.50
2019-03-16T20:22:45.480Z,7.50
2019-03-16T20:25:14.110Z,7.60
2019-03-16T20:27:42.935Z,7.50
2019-03-16T20:30:15.426Z,7.60
2019-03-16T20:32:43.903Z,7.70
2019-03-16T20:35:13.108Z,7.60
2019-03-16T20:37:41.584Z,7.70
2019-03-16T20:40:14.285Z,7.60
2019-03-16T20:42:42.767Z,7.50
2019-03-16T20:45:11.605Z,7.60
2019-03-16T20:47:40.190Z,7.40
2019-03-16T20:50:11.387Z,7.50
2019-03-16T20:52:39.858Z,7.50
2019-03-16T20:55:09.490Z,7.40
2019-03-16T20:57:38.030Z,7.30
2019-03-16T21:00:12.696Z,7.30
2019-03-16T21:02:41.161Z,7.20
2019-03-16T21:05:10.728Z,7.30
2019-03-16T21:07:39.397Z,7.30
2019-03-16T21:10:09.760Z,7.20
2019-03-16T21:12:38.392Z,7.20
2019-03-16T21:15:11.978Z,7.20
2019-03-16T21:17:40.440Z,7.30
2019-03-16T21:20:16.768Z,7.40
2019-03-16T21:22:45.224Z,7.40
2019-03-16T21:25:15.188Z,7.30
2019-03-16T21:27:43.705Z,7.30
2019-03-16T21:30:14.891Z,7.20
2019-03-16T21:32:43.365Z,7.20
2019-03-16T21:35:11.873Z,7.10
2019-03-16T21:37:40.364Z,7.10
2019-03-16T21:40:11.068Z,7.10
2019-03-16T21:42:39.887Z,7.20
2019-03-16T21:45:13.216Z,7.20
2019-03-16T21:47:41.755Z,7.20
2019-03-16T21:50:15.170Z,7.20
2019-03-16T21:52:44.837Z,7.20
2019-03-16T21:55:14.716Z,7.30
2019-03-16T21:57:43.240Z,7.30
2019-03-16T22:00:13.699Z,7.30
2019-03-16T22:02:42.247Z,7.30
2019-03-16T22:05:11.421Z,7.20
2019-03-16T22:07:39.947Z,7.10
2019-03-16T22:10:13.172Z,7.10
2019-03-16T22:12:41.817Z,7.10
2019-03-16T22:15:12.032Z,7.10
2019-03-16T22:17:40.554Z,7.20
2019-03-16T22:20:11.881Z,7.10
2019-03-16T22:22:40.476Z,7.20
2019-03-16T22:25:10.565Z,7.10
2019-03-16T22:27:39.036Z,7.00
2019-03-16T22:30:11.250Z,7.00
2019-03-16T22:32:39.837Z,7.10
2019-03-16T22:35:09.300Z,7.20
2019-03-16T22:37:37.988Z,7.20
2019-03-16T22:40:13.469Z,7.20
2019-03-16T22:42:42.014Z,7.10
2019-03-16T22:45:14.395Z,7.20
2019-03-16T22:47:43.024Z,7.10
2019-03-16T22:50:14.014Z,7.10
2019-03-16T22:52:42.562Z,7.10
2019-03-16T22:55:11.194Z,7.10
2019-03-16T22:57:39.667Z,7.10
2019-03-16T23:00:16.939Z,7.20
2019-03-16T23:02:45.395Z,7.10
2019-03-16T23:05:14.373Z,7.10
2019-03-16T23:07:42.821Z,7.20
2019-03-16T23:10:12.588Z,7.20
2019-03-16T23:12:41.373Z,7.20
2019-03-16T23:15:12.798Z,7.10
2019-03-16T23:17:41.339Z,7.00
2019-03-16T23:20:10.555Z,7.10
2019-03-16T23:22:38.998Z,7.10
2019-03-16T23:25:08.798Z,7.10
2019-03-16T23:27:37.261Z,7.10
2019-03-16T23:30:07.779Z,7.10
2019-03-16T23:32:36.243Z,7.10
2019-03-16T23:35:06.073Z,7.10
2019-03-16T23:37:34.532Z,7.10
2019-03-16T23:40:03.248Z,7.00
2019-03-16T23:42:31.798Z,7.00
2019-03-16T23:45:00.523Z,7.00
2019-03-16T23:47:28.977Z,7.00
2019-03-16T23:49:57.460Z,7.00
2019-03-16T23:52:25.931Z,7.10
2019-03-16T23:54:54.393Z,7.10
2019-03-16T23:57:23.152Z,7.00
2019-03-16T23:59:51.616Z,7.10
